createdAt,value
2018-12-30T00:00:07.497Z,17.3
2018-12-30T00:00:57.202Z,17.3
2018-12-30T00:01:47.956Z,17.3
2018-12-30T00:02:42.887Z,17.2
2018-12-30T00:03:33.579Z,17.1
2018-12-30T00:05:11.808Z,16.9
2018-12-30T00:06:03.151Z,16.9
2018-12-30T00:06:52.019Z,16.9
2018-12-30T00:07:37.091Z,16.8
2018-12-30T00:08:29.374Z,16.8
2018-12-30T00:09:18.651Z,16.8
2018-12-30T00:10:07.493Z,16.8
2018-12-30T00:10:59.351Z,16.8
2018-12-30T00:11:46.712Z,16.9
2018-12-30T00:12:38.058Z,16.9
2018-12-30T00:13:27.946Z,16.9
2018-12-30T00:14:21.226Z,16.9
2018-12-30T00:15:10.196Z,16.9
2018-12-30T00:34:05.022Z,16.9
2018-12-30T00:34:54.631Z,16.9
2018-12-30T00:35:46.584Z,16.9
2018-12-30T00:36:34.887Z,16.8
2018-12-30T00:37:24.302Z,16.8
2018-12-30T00:38:15.529Z,16.8
2018-12-30T00:39:07.999Z,16.8
2018-12-30T00:39:55.914Z,16.8
2018-12-30T00:40:45.440Z,16.8
2018-12-30T00:41:36.149Z,16.9
2018-12-30T00:42:25.711Z,16.9
2018-12-30T00:43:16.876Z,16.9
2018-12-30T00:44:04.257Z,16.9
2018-12-30T00:44:55.706Z,16.9
2018-12-30T00:45:46.039Z,16.9
2018-12-30T00:47:24.896Z,17.1
2018-12-30T00:48:18.528Z,17.1
2018-12-30T00:49:05.223Z,17.2
2018-12-30T00:49:55.183Z,17.3
2018-12-30T00:50:46.116Z,17.3
2018-12-30T00:51:38.391Z,17.3
2018-12-30T00:52:26.546Z,17.3
2018-12-30T00:53:15.508Z,17.4
2018-12-30T00:54:06.504Z,17.4
2018-12-30T00:54:57.961Z,17.4
2018-12-30T00:55:46.314Z,17.4
2018-12-30T00:56:37.033Z,17.3
2018-12-30T00:57:26.717Z,17.3
2018-12-30T00:58:15.786Z,17.3
2018-12-30T00:59:07.306Z,17.3
2018-12-30T00:59:56.906Z,17.3
2018-12-30T01:00:48.041Z,17.2
2018-12-30T01:01:36.875Z,17.1
2018-12-30T01:02:27.246Z,17.1
2018-12-30T01:03:17.203Z,17.1
2018-12-30T01:04:09.390Z,17.1
2018-12-30T01:04:57.088Z,17.1
2018-12-30T01:05:46.668Z,17.1
2018-12-30T01:07:28.900Z,16.9
2018-12-30T01:08:16.558Z,16.9
2018-12-30T01:09:07.458Z,16.9
2018-12-30T01:09:57.946Z,16.9
2018-12-30T01:10:47.525Z,16.8
2018-12-30T01:11:37.580Z,16.9
2018-12-30T01:12:27.977Z,16.9
2018-12-30T01:15:47.669Z,17.1
2018-12-30T01:16:39.979Z,17.1
2018-12-30T01:17:27.712Z,17.2
2018-12-30T01:18:18.010Z,17.2
2018-12-30T01:19:07.872Z,17.2
2018-12-30T01:19:59.059Z,17.3
2018-12-30T01:20:48.205Z,17.3
2018-12-30T01:21:38.636Z,17.3
2018-12-30T01:22:42.219Z,17.4
2018-12-30T01:23:17.931Z,17.4
2018-12-30T01:24:08.417Z,17.4
2018-12-30T01:24:59.086Z,17.4
2018-12-30T01:25:51.324Z,17.4
2018-12-30T01:26:38.559Z,17.4
2018-12-30T01:27:28.408Z,17.4
2018-12-30T01:28:17.883Z,17.4
2018-12-30T01:29:10.618Z,17.4
2018-12-30T01:29:59.076Z,17.4
2018-12-30T01:30:49.403Z,17.3
2018-12-30T01:31:39.565Z,17.3
2018-12-30T01:32:30.075Z,17.2
2018-12-30T01:33:16.900Z,17.1
2018-12-30T01:34:09.441Z,17.1
2018-12-30T01:34:59.680Z,17.1
2018-12-30T01:35:50.333Z,16.9
2018-12-30T01:36:38.250Z,16.9
2018-12-30T01:37:29.555Z,16.8
2018-12-30T01:38:20.063Z,16.8
2018-12-30T01:39:09.204Z,16.8
2018-12-30T01:40:00.323Z,16.8
2018-12-30T01:40:49.268Z,16.8
2018-12-30T01:41:42.176Z,16.8
2018-12-30T01:42:29.145Z,16.8
2018-12-30T01:43:19.705Z,16.8
2018-12-30T01:44:09.388Z,16.8
2018-12-30T01:45:02.429Z,16.9
2018-12-30T01:45:49.909Z,16.9
2018-12-30T01:46:40.799Z,16.9
2018-12-30T01:47:29.448Z,16.9
2018-12-30T01:48:19.849Z,16.9
2018-12-30T01:49:09.335Z,16.8
2018-12-30T01:50:01.054Z,16.7
2018-12-30T01:50:50.767Z,16.6
2018-12-30T01:51:43.912Z,16.6
2018-12-30T01:52:30.678Z,16.4
2018-12-30T01:53:20.729Z,16.4
2018-12-30T01:54:12.714Z,16.3
2018-12-30T01:55:00.294Z,16.3
2018-12-30T01:55:50.402Z,16.3
2018-12-30T01:56:40.827Z,16.3
2018-12-30T01:57:32.451Z,16.3
2018-12-30T01:58:21.096Z,16.3
2018-12-30T01:59:10.815Z,16.3
2018-12-30T02:00:01.859Z,16.3
2018-12-30T02:00:51.367Z,16.3
2018-12-30T02:01:41.821Z,16.4
2018-12-30T02:02:30.458Z,16.4
2018-12-30T02:03:21.341Z,16.5
2018-12-30T02:04:10.803Z,16.6
2018-12-30T02:05:01.281Z,16.6
2018-12-30T02:05:51.237Z,16.7
2018-12-30T02:06:41.332Z,16.7
2018-12-30T02:07:30.703Z,16.8
2018-12-30T02:08:21.045Z,16.9
2018-12-30T02:09:11.388Z,16.9
2018-12-30T02:10:50.401Z,17.1
2018-12-30T02:11:42.450Z,17.1
2018-12-30T02:12:31.670Z,17.1
2018-12-30T02:13:23.732Z,17.1
2018-12-30T02:14:11.441Z,17.1
2018-12-30T02:15:02.230Z,17.2
2018-12-30T02:15:51.288Z,17.2
2018-12-30T02:16:44.159Z,17.1
2018-12-30T02:17:31.625Z,17.1
2018-12-30T02:18:21.767Z,17.1
2018-12-30T02:19:12.142Z,17.1
2018-12-30T02:20:03.119Z,17.1
2018-12-30T02:23:22.387Z,16.9
2018-12-30T02:24:12.717Z,16.9
2018-12-30T02:25:03.132Z,16.8
2018-12-30T02:25:53.169Z,16.8
2018-12-30T02:26:41.787Z,16.8
2018-12-30T02:27:33.493Z,16.7
2018-12-30T02:28:22.489Z,16.7
2018-12-30T02:29:13.671Z,16.8
2018-12-30T02:30:02.857Z,16.8
2018-12-30T02:30:52.901Z,16.8
2018-12-30T02:31:43.091Z,16.8
2018-12-30T02:32:35.116Z,16.8
2018-12-30T02:33:23.294Z,16.9
2018-12-30T02:34:12.714Z,16.9
2018-12-30T02:35:03.616Z,16.9
2018-12-30T02:35:55.142Z,16.9
2018-12-30T02:37:33.169Z,17.1
2018-12-30T02:38:22.446Z,17.1
2018-12-30T02:39:15.166Z,17.2
2018-12-30T02:40:04.231Z,17.2
2018-12-30T02:40:53.411Z,17.3
2018-12-30T02:41:42.818Z,17.3
2018-12-30T02:42:32.601Z,17.3
2018-12-30T02:43:24.587Z,17.3
2018-12-30T02:44:13.792Z,17.3
2018-12-30T02:45:04.339Z,17.3
2018-12-30T02:45:54.194Z,17.3
2018-12-30T02:46:44.346Z,17.3
2018-12-30T02:47:34.323Z,17.3
2018-12-30T02:48:25.756Z,17.2
2018-12-30T02:49:14.603Z,17.1
2018-12-30T02:50:03.668Z,17.1
2018-12-30T02:50:54.035Z,17.1
2018-12-30T02:51:55.885Z,17.1
2018-12-30T02:53:25.003Z,16.9
2018-12-30T02:54:14.283Z,16.9
2018-12-30T02:55:07.248Z,16.9
2018-12-30T02:55:54.725Z,16.9
2018-12-30T02:56:44.960Z,16.9
2018-12-30T02:57:34.776Z,16.9
2018-12-30T02:58:27.141Z,16.9
2018-12-30T02:59:14.352Z,16.9
2018-12-30T03:00:05.569Z,16.9
2018-12-30T03:00:54.923Z,16.9
2018-12-30T03:01:48.135Z,16.9
2018-12-30T03:02:36.385Z,16.9
2018-12-30T03:04:15.138Z,17.1
2018-12-30T03:05:06.950Z,17.1
2018-12-30T03:05:55.212Z,17.1
2018-12-30T03:06:45.344Z,17.2
2018-12-30T03:07:35.579Z,17.3
2018-12-30T03:08:25.199Z,17.3
2018-12-30T03:09:15.250Z,17.3
2018-12-30T03:10:05.912Z,17.3
2018-12-30T03:10:56.373Z,17.3
2018-12-30T03:11:45.928Z,17.3
2018-12-30T03:12:36.847Z,17.4
2018-12-30T03:13:26.068Z,17.4
2018-12-30T03:14:16.104Z,17.4
2018-12-30T03:15:04.774Z,17.5
2018-12-30T03:15:56.164Z,17.5
2018-12-30T03:16:46.191Z,17.5
2018-12-30T03:17:38.063Z,17.5
2018-12-30T03:18:25.839Z,17.5
2018-12-30T03:19:16.161Z,17.5
2018-12-30T03:20:05.919Z,17.4
2018-12-30T03:20:57.396Z,17.4
2018-12-30T03:21:46.311Z,17.4
2018-12-30T03:22:36.974Z,17.3
2018-12-30T03:23:26.444Z,17.3
2018-12-30T03:24:15.601Z,17.2
2018-12-30T03:25:07.062Z,17.1
2018-12-30T03:25:57.345Z,17.1
2018-12-30T03:26:46.662Z,17.1
2018-12-30T03:27:36.939Z,17.1
2018-12-30T03:28:25.339Z,17.1
2018-12-30T03:30:07.027Z,16.9
2018-12-30T03:30:56.613Z,16.9
2018-12-30T03:31:46.654Z,16.9
2018-12-30T03:32:37.835Z,16.9
2018-12-30T03:33:27.643Z,16.9
2018-12-30T03:34:17.997Z,16.9
2018-12-30T03:35:57.306Z,17.1
2018-12-30T03:36:47.830Z,17.1
2018-12-30T03:39:16.875Z,16.9
2018-12-30T03:40:08.153Z,16.9
2018-12-30T03:40:56.245Z,16.8
2018-12-30T03:41:47.890Z,16.8
2018-12-30T03:42:38.035Z,16.8
2018-12-30T03:43:27.717Z,16.8
2018-12-30T03:44:17.292Z,16.8
2018-12-30T03:45:06.945Z,16.8
2018-12-30T03:45:57.058Z,16.8
2018-12-30T03:46:47.522Z,16.8
2018-12-30T03:47:37.495Z,16.8
2018-12-30T03:48:28.026Z,16.8
2018-12-30T03:49:17.325Z,16.8
2018-12-30T03:50:08.394Z,16.9
2018-12-30T03:50:58.370Z,16.9
2018-12-30T03:51:47.982Z,17.1
2018-12-30T03:52:39.209Z,17.1
2018-12-30T03:53:28.712Z,17.1
2018-12-30T03:54:18.763Z,17.2
2018-12-30T03:55:09.153Z,17.3
2018-12-30T03:55:58.296Z,17.4
2018-12-30T03:56:49.249Z,17.4
2018-12-30T03:57:37.849Z,17.4
2018-12-30T03:58:28.217Z,17.4
2018-12-30T03:59:17.456Z,17.4
2018-12-30T04:00:08.441Z,17.4
2018-12-30T04:00:58.692Z,17.4
2018-12-30T04:01:48.674Z,17.4
2018-12-30T04:02:42.285Z,17.4
2018-12-30T04:03:29.446Z,17.3
2018-12-30T04:04:19.751Z,17.3
2018-12-30T04:05:09.237Z,17.3
2018-12-30T04:05:58.860Z,17.3
2018-12-30T04:06:49.150Z,17.2
2018-12-30T04:07:39.133Z,17.1
2018-12-30T04:08:29.029Z,17.1
2018-12-30T04:11:00.014Z,16.9
2018-12-30T04:11:49.487Z,16.9
2018-12-30T04:12:38.863Z,16.9
2018-12-30T04:13:29.864Z,16.9
2018-12-30T04:14:20.131Z,16.9
2018-12-30T04:15:10.756Z,16.8
2018-12-30T04:15:59.134Z,16.9
2018-12-30T04:16:49.389Z,16.9
2018-12-30T04:17:39.428Z,16.9
2018-12-30T04:19:20.174Z,17.1
2018-12-30T04:20:10.448Z,17.1
2018-12-30T04:20:59.767Z,17.1
2018-12-30T04:21:50.684Z,17.2
2018-12-30T04:22:41.983Z,17.2
2018-12-30T04:23:30.984Z,17.2
2018-12-30T04:24:20.256Z,17.3
2018-12-30T04:25:10.972Z,17.3
2018-12-30T04:26:01.853Z,17.3
2018-12-30T04:26:50.142Z,17.4
2018-12-30T04:27:40.443Z,17.4
2018-12-30T04:28:30.574Z,17.5
2018-12-30T04:29:21.183Z,17.5
2018-12-30T04:30:09.834Z,17.5
2018-12-30T04:31:00.794Z,17.5
2018-12-30T04:31:51.346Z,17.5
2018-12-30T04:32:41.658Z,17.4
2018-12-30T04:33:30.092Z,17.4
2018-12-30T04:34:22.086Z,17.3
2018-12-30T04:35:11.125Z,17.2
2018-12-30T04:36:01.928Z,17.1
2018-12-30T04:36:51.672Z,17.1
2018-12-30T04:37:41.180Z,17.1
2018-12-30T04:40:11.710Z,16.9
2018-12-30T04:41:02.245Z,16.8
2018-12-30T04:41:51.985Z,16.8
2018-12-30T04:42:42.176Z,16.8
2018-12-30T04:43:32.230Z,16.8
2018-12-30T04:44:22.257Z,16.8
2018-12-30T04:45:11.789Z,16.8
2018-12-30T05:02:34.116Z,17.5
2018-12-30T05:03:25.133Z,17.4
2018-12-30T05:04:15.018Z,17.4
2018-12-30T05:05:04.223Z,17.3
2018-12-30T05:05:55.029Z,17.3
2018-12-30T05:06:44.989Z,17.3
2018-12-30T05:07:35.523Z,17.2
2018-12-30T05:08:25.323Z,17.1
2018-12-30T05:09:13.964Z,17.1
2018-12-30T05:10:05.773Z,17.1
2018-12-30T05:12:36.235Z,16.9
2018-12-30T05:13:24.311Z,16.9
2018-12-30T05:14:14.256Z,16.9
2018-12-30T05:15:05.268Z,16.9
2018-12-30T05:15:54.408Z,16.9
2018-12-30T05:16:45.842Z,16.9
2018-12-30T05:17:36.108Z,16.9
2018-12-30T05:18:24.988Z,16.9
2018-12-30T05:19:15.460Z,16.9
2018-12-30T05:20:05.000Z,16.9
2018-12-30T05:20:54.813Z,16.9
2018-12-30T05:23:25.837Z,17.1
2018-12-30T05:24:16.617Z,17.1
2018-12-30T05:25:06.413Z,17.2
2018-12-30T05:25:56.216Z,17.3
2018-12-30T05:26:45.420Z,17.3
2018-12-30T05:27:35.510Z,17.3
2018-12-30T05:28:26.837Z,17.2
2018-12-30T05:29:16.483Z,17.1
2018-12-30T05:30:06.923Z,17.1
2018-12-30T05:30:56.567Z,17.1
2018-12-30T05:31:45.840Z,17.1
2018-12-30T05:32:36.599Z,17.1
2018-12-30T05:33:27.199Z,17.1
2018-12-30T05:34:17.145Z,17.1
2018-12-30T05:35:06.839Z,17.1
2018-12-30T05:35:59.092Z,17.1
2018-12-30T05:36:46.370Z,17.1
2018-12-30T05:37:37.387Z,17.1
2018-12-30T05:38:27.661Z,17.2
2018-12-30T05:39:17.649Z,17.2
2018-12-30T05:40:07.262Z,17.3
2018-12-30T05:40:57.777Z,17.3
2018-12-30T05:41:46.786Z,17.3
2018-12-30T05:42:36.246Z,17.3
2018-12-30T05:43:26.274Z,17.4
2018-12-30T05:44:16.991Z,17.5
2018-12-30T05:45:07.566Z,17.5
2018-12-30T05:45:58.231Z,17.5
2018-12-30T05:46:47.336Z,17.6
2018-12-30T05:47:37.685Z,17.5
2018-12-30T05:48:28.024Z,17.5
2018-12-30T05:49:16.656Z,17.4
2018-12-30T05:50:08.253Z,17.4
2018-12-30T05:50:57.968Z,17.4
2018-12-30T05:51:47.960Z,17.4
2018-12-30T05:52:45.428Z,17.4
2018-12-30T05:53:28.828Z,17.3
2018-12-30T05:54:18.480Z,17.3
2018-12-30T05:55:08.525Z,17.3
2018-12-30T05:55:58.260Z,17.2
2018-12-30T05:56:47.545Z,17.1
2018-12-30T05:57:38.630Z,17.1
2018-12-30T05:58:27.900Z,17.1
2018-12-30T06:00:57.747Z,16.9
2018-12-30T06:01:48.098Z,16.9
2018-12-30T06:02:38.453Z,16.9
2018-12-30T06:03:28.037Z,16.9
2018-12-30T06:04:18.773Z,16.9
2018-12-30T06:08:29.086Z,17.1
2018-12-30T06:09:19.766Z,17.1
2018-12-30T06:10:09.354Z,17.1
2018-12-30T06:10:58.466Z,17.2
2018-12-30T06:11:48.850Z,17.3
2018-12-30T06:12:39.360Z,17.3
2018-12-30T06:13:29.746Z,17.4
2018-12-30T06:14:20.086Z,17.4
2018-12-30T06:15:09.863Z,17.4
2018-12-30T06:15:59.642Z,17.4
2018-12-30T06:16:49.453Z,17.4
2018-12-30T06:17:39.433Z,17.5
2018-12-30T06:18:28.891Z,17.5
2018-12-30T06:19:19.238Z,17.5
2018-12-30T06:20:10.943Z,17.4
2018-12-30T06:21:00.260Z,17.4
2018-12-30T06:21:50.273Z,17.4
2018-12-30T06:22:40.180Z,17.3
2018-12-30T06:23:30.084Z,17.3
2018-12-30T06:24:20.668Z,17.3
2018-12-30T06:25:09.644Z,17.2
2018-12-30T06:26:00.608Z,17.1
2018-12-30T06:26:50.650Z,17.1
2018-12-30T06:27:39.834Z,17.1
2018-12-30T06:28:29.671Z,17.1
2018-12-30T06:30:11.147Z,16.9
2018-12-30T06:31:00.567Z,16.9
2018-12-30T06:31:49.563Z,16.9
2018-12-30T06:32:40.189Z,16.9
2018-12-30T06:33:31.188Z,16.9
2018-12-30T06:34:20.922Z,16.9
2018-12-30T06:35:11.080Z,16.9
2018-12-30T06:36:00.223Z,16.9
2018-12-30T06:38:31.229Z,17.1
2018-12-30T06:39:21.534Z,17.1
2018-12-30T06:40:18.817Z,17.1
2018-12-30T06:40:59.779Z,17.1
2018-12-30T06:41:51.439Z,17.1
2018-12-30T06:42:41.419Z,17.3
2018-12-30T06:43:30.906Z,17.3
2018-12-30T06:44:21.607Z,17.3
2018-12-30T06:45:11.313Z,17.3
2018-12-30T06:46:02.284Z,17.3
2018-12-30T06:46:51.132Z,17.3
2018-12-30T06:47:41.566Z,17.4
2018-12-30T06:48:30.984Z,17.3
2018-12-30T06:49:22.203Z,17.4
2018-12-30T06:50:12.529Z,17.4
2018-12-30T06:51:02.591Z,17.3
2018-12-30T06:51:52.276Z,17.3
2018-12-30T06:52:41.626Z,17.3
2018-12-30T06:53:31.993Z,17.3
2018-12-30T06:54:22.588Z,17.1
2018-12-30T06:55:12.307Z,17.1
2018-12-30T06:57:42.724Z,16.9
2018-12-30T06:58:31.431Z,16.9
2018-12-30T06:59:21.511Z,16.9
2018-12-30T07:00:12.410Z,16.8
2018-12-30T07:01:02.656Z,16.8
2018-12-30T07:01:52.678Z,16.8
2018-12-30T07:02:43.036Z,16.8
2018-12-30T07:03:32.579Z,16.8
2018-12-30T07:04:22.158Z,16.8
2018-12-30T07:05:13.271Z,16.8
2018-12-30T07:06:03.563Z,16.8
2018-12-30T07:06:53.405Z,16.9
2018-12-30T07:07:43.145Z,16.9
2018-12-30T07:11:03.941Z,17.1
2018-12-30T07:11:54.443Z,17.1
2018-12-30T07:12:43.221Z,17.1
2018-12-30T07:13:32.658Z,17.1
2018-12-30T07:14:23.312Z,17.2
2018-12-30T07:15:12.277Z,17.3
2018-12-30T07:16:03.947Z,17.4
2018-12-30T07:16:53.845Z,17.4
2018-12-30T07:17:44.357Z,17.4
2018-12-30T07:18:33.934Z,17.4
2018-12-30T07:19:23.100Z,17.3
2018-12-30T07:20:14.272Z,17.3
2018-12-30T07:21:03.765Z,17.2
2018-12-30T07:21:54.045Z,17.1
2018-12-30T07:22:44.442Z,17.1
2018-12-30T07:23:34.761Z,17.1
2018-12-30T07:24:24.822Z,17.2
2018-12-30T07:25:14.309Z,17.2
2018-12-30T07:26:03.524Z,17.3
2018-12-30T07:26:53.646Z,17.3
2018-12-30T07:27:44.824Z,17.3
2018-12-30T07:28:33.444Z,17.4
2018-12-30T07:29:24.604Z,17.4
2018-12-30T07:30:14.096Z,17.4
2018-12-30T07:31:05.720Z,17.4
2018-12-30T07:31:54.641Z,17.4
2018-12-30T07:32:44.331Z,17.4
2018-12-30T07:33:33.806Z,17.5
2018-12-30T07:34:24.193Z,17.6
2018-12-30T07:35:14.726Z,17.6
2018-12-30T07:36:06.269Z,17.6
2018-12-30T07:36:54.533Z,17.6
2018-12-30T07:37:45.668Z,17.5
2018-12-30T07:38:35.059Z,17.4
2018-12-30T07:39:25.299Z,17.4
2018-12-30T07:40:15.069Z,17.3
2018-12-30T07:41:05.656Z,17.3
2018-12-30T07:41:55.753Z,17.2
2018-12-30T07:42:45.756Z,17.1
2018-12-30T07:43:35.303Z,17.1
2018-12-30T07:44:25.724Z,17.1
2018-12-30T07:46:04.803Z,16.9
2018-12-30T07:46:55.172Z,16.9
2018-12-30T07:47:45.617Z,16.9
2018-12-30T07:48:35.359Z,16.9
2018-12-30T07:49:24.869Z,16.9
2018-12-30T07:50:15.209Z,16.9
2018-12-30T07:51:04.979Z,16.9
2018-12-30T07:51:55.931Z,16.9
2018-12-30T07:52:46.036Z,16.9
2018-12-30T07:53:35.643Z,16.9
2018-12-30T07:55:16.449Z,17.1
2018-12-30T07:56:05.316Z,17.1
2018-12-30T07:56:56.469Z,17.1
2018-12-30T07:57:46.517Z,17.2
2018-12-30T07:58:36.428Z,17.2
2018-12-30T07:59:26.251Z,17.3
2018-12-30T08:00:16.458Z,17.3
2018-12-30T08:01:06.251Z,17.4
2018-12-30T08:01:57.371Z,17.4
2018-12-30T08:02:47.356Z,17.5
2018-12-30T08:03:37.436Z,17.5
2018-12-30T08:04:26.543Z,17.5
2018-12-30T08:05:16.836Z,17.5
2018-12-30T08:06:06.848Z,17.4
2018-12-30T08:06:57.461Z,17.5
2018-12-30T08:07:46.681Z,17.5
2018-12-30T08:08:37.325Z,17.4
2018-12-30T08:09:26.531Z,17.4
2018-12-30T08:10:16.983Z,17.4
2018-12-30T08:11:06.850Z,17.3
2018-12-30T08:11:57.800Z,17.3
2018-12-30T08:12:47.283Z,17.3
2018-12-30T08:13:38.283Z,17.2
2018-12-30T08:14:26.570Z,17.1
2018-12-30T08:15:17.252Z,17.1
2018-12-30T08:16:57.915Z,16.9
2018-12-30T08:17:47.980Z,16.9
2018-12-30T08:18:38.377Z,16.9
2018-12-30T08:19:27.280Z,16.9
2018-12-30T08:20:16.479Z,16.9
2018-12-30T08:21:07.652Z,16.9
2018-12-30T08:21:58.180Z,16.9
2018-12-30T08:22:47.534Z,16.9
2018-12-30T08:23:36.759Z,16.9
2018-12-30T08:24:28.215Z,16.9
2018-12-30T08:26:07.978Z,17.1
2018-12-30T08:26:58.938Z,17.1
2018-12-30T08:27:48.187Z,17.1
2018-12-30T08:28:39.722Z,17.2
2018-12-30T08:29:28.488Z,17.2
2018-12-30T08:30:18.780Z,17.3
2018-12-30T08:31:07.135Z,17.3
2018-12-30T08:31:59.303Z,17.3
2018-12-30T08:32:47.820Z,17.4
2018-12-30T08:33:38.992Z,17.4
2018-12-30T08:34:29.337Z,17.4
2018-12-30T08:35:18.294Z,17.5
2018-12-30T08:36:08.587Z,17.5
2018-12-30T08:36:58.480Z,17.4
2018-12-30T08:37:49.832Z,17.4
2018-12-30T08:38:40.117Z,17.4
2018-12-30T08:39:28.885Z,17.3
2018-12-30T08:40:19.450Z,17.3
2018-12-30T08:41:09.454Z,17.2
2018-12-30T08:41:59.026Z,17.1
2018-12-30T08:42:49.329Z,17.1
2018-12-30T08:43:38.948Z,17.1
2018-12-30T08:45:21.516Z,16.9
2018-12-30T08:46:09.932Z,16.9
2018-12-30T08:47:01.719Z,16.9
2018-12-30T08:47:50.294Z,16.9
2018-12-30T08:48:41.103Z,16.9
2018-12-30T08:49:30.129Z,16.9
2018-12-30T08:50:20.942Z,16.9
2018-12-30T08:51:12.279Z,16.9
2018-12-30T08:52:00.574Z,16.9
2018-12-30T08:53:42.776Z,17.1
2018-12-30T08:54:31.163Z,17.1
2018-12-30T08:55:20.189Z,17.1
2018-12-30T08:56:10.011Z,17.3
2018-12-30T08:57:00.278Z,17.3
2018-12-30T08:57:51.166Z,17.4
2018-12-30T08:58:41.980Z,17.4
2018-12-30T08:59:30.555Z,17.4
2018-12-30T09:00:20.022Z,17.4
2018-12-30T09:01:10.871Z,17.5
2018-12-30T09:16:59.186Z,17.1
2018-12-30T09:17:48.939Z,17.1
2018-12-30T09:18:39.002Z,17.1
2018-12-30T09:19:28.629Z,17.1
2018-12-30T09:20:18.594Z,17.1
2018-12-30T09:21:09.432Z,17.2
2018-12-30T09:21:59.282Z,17.3
2018-12-30T09:22:49.382Z,17.3
2018-12-30T09:23:46.910Z,17.3
2018-12-30T09:24:29.357Z,17.3
2018-12-30T09:25:19.140Z,17.3
2018-12-30T09:26:08.912Z,17.3
2018-12-30T09:26:59.912Z,17.2
2018-12-30T09:27:50.202Z,17.2
2018-12-30T09:28:38.524Z,17.1
2018-12-30T09:29:29.384Z,17.1
2018-12-30T09:30:20.004Z,17.1
2018-12-30T09:31:09.011Z,17.1
2018-12-30T09:32:00.382Z,17.1
2018-12-30T09:32:50.215Z,17.3
2018-12-30T09:33:39.995Z,17.3
2018-12-30T09:34:30.366Z,17.3
2018-12-30T09:35:20.353Z,17.3
2018-12-30T09:36:09.579Z,17.3
2018-12-30T09:37:02.171Z,17.2
2018-12-30T09:37:49.947Z,17.1
2018-12-30T09:38:41.189Z,16.9
2018-12-30T09:39:29.808Z,16.8
2018-12-30T09:40:20.169Z,16.8
2018-12-30T09:41:10.366Z,16.8
2018-12-30T09:42:02.535Z,16.9
2018-12-30T09:43:40.693Z,17.1
2018-12-30T09:44:30.742Z,17.1
2018-12-30T09:45:20.603Z,17.2
2018-12-30T09:46:09.488Z,17.3
2018-12-30T09:47:00.043Z,17.3
2018-12-30T09:47:51.709Z,17.3
2018-12-30T09:48:42.975Z,17.3
2018-12-30T09:49:31.325Z,17.3
2018-12-30T09:50:21.390Z,17.2
2018-12-30T09:51:11.241Z,17.1
2018-12-30T09:52:02.631Z,17.1
2018-12-30T09:52:50.453Z,17.1
2018-12-30T09:55:22.292Z,16.9
2018-12-30T09:56:10.938Z,16.9
2018-12-30T09:57:01.624Z,16.8
2018-12-30T09:57:51.275Z,16.8
2018-12-30T09:58:40.938Z,16.8
2018-12-30T09:59:31.000Z,16.8
2018-12-30T10:00:22.318Z,16.8
2018-12-30T10:01:11.078Z,16.9
2018-12-30T10:02:00.540Z,16.9
2018-12-30T10:02:52.241Z,16.9
2018-12-30T10:03:42.134Z,16.9
2018-12-30T10:04:32.077Z,16.9
2018-12-30T10:06:11.364Z,17.1
2018-12-30T10:07:01.672Z,17.1
2018-12-30T10:07:52.582Z,17.2
2018-12-30T10:08:43.004Z,17.2
2018-12-30T10:09:31.694Z,17.3
2018-12-30T10:10:21.397Z,17.4
2018-12-30T10:11:12.525Z,17.4
2018-12-30T10:12:01.852Z,17.4
2018-12-30T10:12:52.887Z,17.4
2018-12-30T10:13:42.274Z,17.4
2018-12-30T10:14:33.306Z,17.4
2018-12-30T10:15:22.006Z,17.4
2018-12-30T10:16:12.899Z,17.3
2018-12-30T10:17:03.033Z,17.3
2018-12-30T10:17:52.717Z,17.3
2018-12-30T10:18:43.379Z,17.3
2018-12-30T10:19:32.514Z,17.2
2018-12-30T10:20:22.023Z,17.2
2018-12-30T10:21:13.841Z,17.1
2018-12-30T10:22:02.449Z,17.1
2018-12-30T10:23:44.304Z,16.9
2018-12-30T10:24:32.674Z,16.9
2018-12-30T10:25:22.711Z,16.8
2018-12-30T10:26:13.024Z,16.8
2018-12-30T10:27:03.076Z,16.8
2018-12-30T10:27:54.793Z,16.7
2018-12-30T10:28:43.688Z,16.7
2018-12-30T10:29:33.243Z,16.7
2018-12-30T10:30:23.628Z,16.7
2018-12-30T10:31:13.074Z,16.7
2018-12-30T10:32:03.955Z,16.8
2018-12-30T10:32:54.103Z,16.8
2018-12-30T10:33:44.376Z,16.8
2018-12-30T10:34:34.508Z,16.9
2018-12-30T10:35:24.745Z,16.9
2018-12-30T10:36:13.138Z,16.9
2018-12-30T10:37:55.188Z,17.1
2018-12-30T10:38:44.761Z,17.1
2018-12-30T10:39:34.770Z,17.3
2018-12-30T10:40:25.166Z,17.3
2018-12-30T10:41:14.311Z,17.4
2018-12-30T10:42:05.485Z,17.4
2018-12-30T10:42:54.980Z,17.4
2018-12-30T10:43:44.567Z,17.3
2018-12-30T10:44:34.802Z,17.3
2018-12-30T10:45:24.882Z,17.1
2018-12-30T10:47:04.954Z,17.1
2018-12-30T10:47:54.764Z,17.1
2018-12-30T10:48:45.097Z,17.1
2018-12-30T10:49:34.591Z,17.1
2018-12-30T10:51:15.332Z,16.9
2018-12-30T10:52:05.297Z,16.9
2018-12-30T10:55:25.511Z,16.9
2018-12-30T10:56:15.684Z,16.9
2018-12-30T10:57:06.019Z,16.9
2018-12-30T10:57:54.936Z,16.9
2018-12-30T10:58:45.809Z,16.8
2018-12-30T10:59:35.826Z,16.8
2018-12-30T11:00:25.386Z,16.9
2018-12-30T11:01:15.656Z,16.9
2018-12-30T11:02:05.480Z,16.9
2018-12-30T11:02:55.788Z,16.9
2018-12-30T11:05:25.691Z,17.1
2018-12-30T11:06:14.988Z,17.1
2018-12-30T11:07:06.094Z,17.2
2018-12-30T11:07:56.208Z,17.2
2018-12-30T11:08:46.298Z,17.3
2018-12-30T11:09:36.586Z,17.3
2018-12-30T11:10:26.576Z,17.3
2018-12-30T11:11:16.649Z,17.4
2018-12-30T11:12:06.530Z,17.4
2018-12-30T11:12:56.474Z,17.4
2018-12-30T11:13:47.111Z,17.4
2018-12-30T11:14:37.143Z,17.4
2018-12-30T11:15:26.888Z,17.4
2018-12-30T11:16:16.708Z,17.4
2018-12-30T11:17:07.311Z,17.4
2018-12-30T11:17:56.632Z,17.3
2018-12-30T11:18:48.403Z,17.3
2018-12-30T11:19:36.196Z,17.3
2018-12-30T11:20:27.885Z,17.2
2018-12-30T11:21:18.205Z,17.1
2018-12-30T11:22:06.328Z,17.1
2018-12-30T11:24:39.282Z,16.9
2018-12-30T11:25:27.377Z,16.9
2018-12-30T11:26:17.464Z,16.8
2018-12-30T11:27:07.994Z,16.8
2018-12-30T11:27:58.060Z,16.9
2018-12-30T11:28:47.627Z,16.8
2018-12-30T11:29:37.838Z,16.9
2018-12-30T11:30:28.048Z,16.9
2018-12-30T11:31:19.715Z,16.9
2018-12-30T11:32:07.844Z,16.9
2018-12-30T11:32:56.986Z,16.9
2018-12-30T11:33:47.097Z,16.8
2018-12-30T11:34:37.906Z,16.8
2018-12-30T11:35:29.346Z,16.8
2018-12-30T11:36:19.836Z,16.8
2018-12-30T11:37:08.221Z,16.8
2018-12-30T11:37:58.129Z,16.8
2018-12-30T11:38:47.414Z,16.8
2018-12-30T11:39:38.149Z,16.8
2018-12-30T11:40:28.345Z,16.9
2018-12-30T11:41:18.393Z,16.9
2018-12-30T11:42:07.206Z,16.9
2018-12-30T11:42:59.616Z,16.9
2018-12-30T11:44:39.441Z,17.1
2018-12-30T11:45:28.677Z,17.1
2018-12-30T11:46:19.833Z,17.2
2018-12-30T11:47:11.581Z,17.3
2018-12-30T11:47:59.183Z,17.3
2018-12-30T11:48:49.995Z,17.4
2018-12-30T11:49:39.260Z,17.4
2018-12-30T11:50:28.445Z,17.4
2018-12-30T11:51:18.913Z,17.5
2018-12-30T11:52:09.168Z,17.5
2018-12-30T11:52:59.223Z,17.5
2018-12-30T11:53:49.845Z,17.5
2018-12-30T11:54:39.298Z,17.5
2018-12-30T11:55:29.362Z,17.5
2018-12-30T11:56:19.695Z,17.6
2018-12-30T11:57:09.767Z,17.4
2018-12-30T11:57:59.266Z,17.4
2018-12-30T11:58:49.673Z,17.4
2018-12-30T11:59:40.487Z,17.3
2018-12-30T12:00:29.240Z,17.3
2018-12-30T12:01:19.795Z,17.3
2018-12-30T12:02:10.222Z,17.2
2018-12-30T12:02:59.627Z,17.2
2018-12-30T12:03:49.391Z,17.1
2018-12-30T12:04:39.982Z,17.1
2018-12-30T12:05:30.619Z,17.1
2018-12-30T12:06:20.632Z,17.1
2018-12-30T12:07:10.695Z,17.1
2018-12-30T12:08:00.507Z,17.1
2018-12-30T12:08:50.007Z,17.1
2018-12-30T12:09:39.782Z,17.2
2018-12-30T12:10:29.311Z,17.3
2018-12-30T12:11:19.913Z,17.2
2018-12-30T12:12:10.812Z,17.3
2018-12-30T12:13:01.384Z,17.3
2018-12-30T12:13:51.464Z,17.3
2018-12-30T12:14:40.971Z,17.3
2018-12-30T12:15:31.044Z,17.3
2018-12-30T12:16:21.059Z,17.3
2018-12-30T12:17:11.111Z,17.4
2018-12-30T12:18:02.014Z,17.5
2018-12-30T12:18:51.524Z,17.6
2018-12-30T12:19:40.169Z,17.6
2018-12-30T12:20:30.516Z,17.7
2018-12-30T12:21:21.177Z,17.8
2018-12-30T12:22:11.266Z,17.8
2018-12-30T12:23:01.287Z,17.8
2018-12-30T12:23:51.561Z,17.9
2018-12-30T12:24:41.936Z,17.9
2018-12-30T12:25:31.403Z,17.8
2018-12-30T12:26:20.928Z,17.9
2018-12-30T12:27:11.865Z,17.8
2018-12-30T12:28:02.376Z,17.8
2018-12-30T12:28:51.908Z,17.8
2018-12-30T12:29:42.233Z,17.6
2018-12-30T12:30:32.330Z,17.6
2018-12-30T12:31:21.692Z,17.6
2018-12-30T12:32:12.533Z,17.5
2018-12-30T12:33:02.576Z,17.4
2018-12-30T12:33:52.238Z,17.4
2018-12-30T12:34:42.923Z,17.4
2018-12-30T12:35:31.562Z,17.4
2018-12-30T12:36:22.238Z,17.4
2018-12-30T12:37:12.315Z,17.4
2018-12-30T12:38:02.610Z,17.4
2018-12-30T12:38:52.862Z,17.4
2018-12-30T12:39:42.730Z,17.4
2018-12-30T12:40:32.307Z,17.4
2018-12-30T12:41:22.306Z,17.4
2018-12-30T12:42:13.660Z,17.4
2018-12-30T12:43:02.997Z,17.5
2018-12-30T12:43:51.860Z,17.5
2018-12-30T12:44:43.025Z,17.6
2018-12-30T12:45:33.094Z,17.6
2018-12-30T12:46:23.422Z,17.6
2018-12-30T12:47:12.202Z,17.6